Time;durP1;ratioP1;P1;durP2;ratioP2;P2;SDS_P1;SDS_P2;PMS_P1;PMS_P2;Temp;Humidity;BMP_temperature;BMP_pressure;BME280_temperature;BME280_humidity;BME280_pressure;Samples;Min_cycle;Max_cycle;Signal;HPM_P1;HPM_P2
2024/02/20 00:02:00;;;;;;;16.02;6.57;;;9.10;99.90;;;;;;5070383;28;20213;-62
2024/02/20 00:04:25;;;;;;;12.80;6.38;;;9.10;99.90;;;;;;5079184;28;20097;-63
2024/02/20 00:06:51;;;;;;;15.40;6.68;;;9.10;99.90;;;;;;5078693;28;20016;-62
2024/02/20 00:09:17;;;;;;;14.55;7.13;;;9.10;99.90;;;;;;5078960;28;20067;-62
2024/02/20 00:11:43;;;;;;;10.70;6.57;;;9.10;99.90;;;;;;5075745;28;20642;-63
2024/02/20 00:14:09;;;;;;;11.15;6.35;;;9.10;99.90;;;;;;5074004;28;20123;-63
2024/02/20 00:16:34;;;;;;;14.90;6.60;;;9.10;99.90;;;;;;5078619;28;20039;-62
2024/02/20 00:19:00;;;;;;;10.90;6.38;;;9.10;99.90;;;;;;5076597;28;20418;-62
2024/02/20 00:21:26;;;;;;;11.25;6.45;;;9.10;99.90;;;;;;5075339;28;20028;-62
2024/02/20 00:23:51;;;;;;;13.02;6.28;;;9.10;99.90;;;;;;5074124;28;20019;-62
2024/02/20 00:26:18;;;;;;;13.32;6.15;;;9.20;99.90;;;;;;5078638;28;20027;-62
2024/02/20 00:28:44;;;;;;;14.50;6.75;;;9.20;99.90;;;;;;5073992;28;20027;-62
2024/02/20 00:31:09;;;;;;;13.05;7.00;;;9.20;99.90;;;;;;5077705;28;20440;-62
2024/02/20 00:33:35;;;;;;;12.00;7.15;;;9.20;99.90;;;;;;5078166;28;20030;-62
2024/02/20 00:36:02;;;;;;;12.70;6.45;;;9.20;99.90;;;;;;5077982;28;20415;-62
2024/02/20 00:38:27;;;;;;;12.98;6.80;;;9.20;99.90;;;;;;5077420;28;20027;-62
2024/02/20 00:40:53;;;;;;;13.48;7.00;;;9.20;99.90;;;;;;5077874;28;20024;-62
2024/02/20 00:43:18;;;;;;;16.08;6.07;;;9.10;99.90;;;;;;5079028;28;20043;-62
2024/02/20 00:45:47;;;;;;;10.05;6.35;;;9.20;99.90;;;;;;5077842;28;20026;-62
2024/02/20 00:48:13;;;;;;;12.05;6.43;;;9.10;99.90;;;;;;5077271;28;20607;-62
2024/02/20 00:50:38;;;;;;;13.90;6.40;;;9.10;99.90;;;;;;5077844;28;20113;-62
2024/02/20 00:53:04;;;;;;;11.40;6.00;;;9.10;99.90;;;;;;5074363;28;20321;-62
2024/02/20 00:55:29;;;;;;;9.27;6.18;;;9.10;99.90;;;;;;5077011;28;20096;-61
2024/02/20 00:57:57;;;;;;;11.55;6.13;;;9.20;99.90;;;;;;5079483;28;20698;-63
2024/02/20 01:00:23;;;;;;;13.32;6.90;;;9.10;99.90;;;;;;5079448;28;20020;-62
2024/02/20 01:02:49;;;;;;;9.68;6.93;;;9.10;99.90;;;;;;5071039;28;20512;-62
2024/02/20 01:05:15;;;;;;;14.35;6.82;;;9.10;99.90;;;;;;5076781;28;20036;-63
2024/02/20 01:07:40;;;;;;;15.38;6.35;;;9.10;99.90;;;;;;5077556;28;20145;-62
2024/02/20 01:10:06;;;;;;;13.13;6.97;;;9.10;99.90;;;;;;5077383;28;20024;-62
2024/02/20 01:12:31;;;;;;;10.10;6.07;;;9.10;99.90;;;;;;5079697;28;20031;-62
2024/02/20 01:14:58;;;;;;;10.10;5.88;;;9.10;99.90;;;;;;5074360;28;20036;-62
2024/02/20 01:17:24;;;;;;;10.13;5.38;;;9.10;99.90;;;;;;5079831;28;20024;-62
2024/02/20 01:19:49;;;;;;;12.35;6.35;;;9.10;99.90;;;;;;5078871;28;20494;-62
2024/02/20 01:22:15;;;;;;;9.00;5.25;;;9.10;99.90;;;;;;5078631;28;20027;-62
2024/02/20 01:24:40;;;;;;;9.32;5.78;;;9.10;99.90;;;;;;5079564;28;20028;-62
2024/02/20 01:27:06;;;;;;;10.05;6.13;;;9.10;99.90;;;;;;5081757;28;20043;-62
2024/02/20 01:29:31;;;;;;;10.93;5.88;;;9.10;99.90;;;;;;5079787;28;20142;-63
2024/02/20 01:31:57;;;;;;;13.70;6.20;;;9.10;99.90;;;;;;5079770;28;20028;-62
2024/02/20 01:34:23;;;;;;;9.82;5.88;;;9.10;99.90;;;;;;5079745;28;20028;-63
2024/02/20 01:36:52;;;;;;;11.70;6.40;;;9.10;99.90;;;;;;5079495;28;20056;-62
2024/02/20 01:39:21;;;;;;;9.02;5.75;;;9.10;99.90;;;;;;5079245;28;20020;-62
2024/02/20 01:41:47;;;;;;;8.07;5.15;;;9.10;99.90;;;;;;5074087;28;20020;-63
2024/02/20 01:44:13;;;;;;;14.77;6.55;;;9.10;99.90;;;;;;5074575;28;20608;-62
2024/02/20 01:46:41;;;;;;;14.65;5.93;;;9.10;99.90;;;;;;5077412;28;20032;-62
2024/02/20 01:49:07;;;;;;;11.90;6.20;;;9.10;99.90;;;;;;5075332;28;20012;-62
2024/02/20 01:51:33;;;;;;;13.48;6.40;;;9.10;99.90;;;;;;5076672;28;20082;-62
2024/02/20 01:53:59;;;;;;;12.52;6.55;;;9.00;99.90;;;;;;5073448;28;20109;-62
2024/02/20 01:56:25;;;;;;;10.68;5.50;;;9.10;99.90;;;;;;5074678;28;20107;-62
2024/02/20 01:58:51;;;;;;;11.40;6.05;;;9.00;99.90;;;;;;5075349;28;20028;-63
2024/02/20 02:01:18;;;;;;;11.07;6.32;;;9.00;99.90;;;;;;5075010;28;20020;-61
2024/02/20 02:03:44;;;;;;;8.55;5.35;;;9.00;99.90;;;;;;5078308;28;20019;-62
2024/02/20 02:06:09;;;;;;;9.32;5.25;;;9.00;99.90;;;;;;5079000;28;20024;-62
2024/02/20 02:08:35;;;;;;;13.55;4.97;;;9.00;99.90;;;;;;5078875;28;20032;-63
2024/02/20 02:11:01;;;;;;;9.60;5.35;;;9.00;99.90;;;;;;5079135;28;20099;-61
2024/02/20 02:13:26;;;;;;;9.60;5.50;;;9.00;99.90;;;;;;5079316;28;20511;-62
2024/02/20 02:15:52;;;;;;;8.13;5.50;;;9.00;99.90;;;;;;5078956;28;20032;-62
2024/02/20 02:18:18;;;;;;;10.75;5.15;;;9.00;99.90;;;;;;5078794;28;20451;-62
2024/02/20 02:20:43;;;;;;;10.80;5.22;;;9.00;99.90;;;;;;5080685;28;20028;-62
2024/02/20 02:23:09;;;;;;;9.10;5.35;;;9.00;99.90;;;;;;5079066;28;20028;-62
2024/02/20 02:25:34;;;;;;;7.43;4.45;;;9.00;99.90;;;;;;5077515;28;20508;-62
2024/02/20 02:28:00;;;;;;;9.07;4.45;;;9.00;99.90;;;;;;5078722;28;20102;-62
2024/02/20 02:30:25;;;;;;;7.38;4.88;;;9.00;99.90;;;;;;5078447;28;20031;-62
2024/02/20 02:32:51;;;;;;;10.27;4.47;;;8.90;99.90;;;;;;5080387;28;20038;-62
2024/02/20 02:35:16;;;;;;;7.80;4.80;;;8.90;99.90;;;;;;5078891;28;20028;-63
2024/02/20 02:37:42;;;;;;;9.30;5.15;;;8.90;99.90;;;;;;5077650;28;20353;-62
2024/02/20 02:40:08;;;;;;;11.27;4.75;;;8.90;99.90;;;;;;5078483;28;20030;-62
2024/02/20 02:42:34;;;;;;;9.50;4.97;;;8.90;99.90;;;;;;5078834;28;20035;-63
2024/02/20 02:45:00;;;;;;;7.18;4.38;;;8.90;99.90;;;;;;5078870;28;20021;-62
2024/02/20 02:47:25;;;;;;;6.97;4.57;;;8.90;99.90;;;;;;5079812;28;20370;-63
2024/02/20 02:49:51;;;;;;;12.05;5.78;;;8.90;99.90;;;;;;5078681;28;20378;-62
2024/02/20 02:52:16;;;;;;;8.65;4.60;;;8.80;99.90;;;;;;5079046;28;20042;-62
2024/02/20 02:54:42;;;;;;;7.43;4.53;;;8.80;99.90;;;;;;5077428;28;20032;-62
2024/02/20 02:57:08;;;;;;;10.00;5.20;;;8.80;99.90;;;;;;5076768;28;20021;-63
2024/02/20 02:59:34;;;;;;;9.25;5.00;;;8.80;99.90;;;;;;5078530;28;20028;-62
2024/02/20 03:02:00;;;;;;;7.85;5.10;;;8.80;99.90;;;;;;5077266;28;20028;-62
2024/02/20 03:04:26;;;;;;;5.53;4.32;;;8.80;99.90;;;;;;5078421;28;20074;-62
2024/02/20 03:06:53;;;;;;;5.43;4.35;;;8.80;99.90;;;;;;5078362;28;20484;-62
2024/02/20 03:09:21;;;;;;;7.95;4.15;;;8.80;99.90;;;;;;5078390;28;20067;-62
2024/02/20 03:11:47;;;;;;;7.57;4.40;;;8.80;99.90;;;;;;5078458;28;20485;-62
2024/02/20 03:14:13;;;;;;;7.38;4.10;;;8.80;99.90;;;;;;5078428;28;20048;-62
2024/02/20 03:16:39;;;;;;;5.97;4.05;;;8.80;99.90;;;;;;5078466;28;20035;-71
2024/02/20 03:19:06;;;;;;;7.85;4.03;;;8.70;99.90;;;;;;5076352;28;20034;-60
2024/02/20 03:21:32;;;;;;;7.43;3.53;;;8.80;99.90;;;;;;5078234;28;20043;-59
2024/02/20 03:23:57;;;;;;;6.70;4.13;;;8.70;99.90;;;;;;5078542;28;20548;-60
2024/02/20 03:26:23;;;;;;;8.43;3.88;;;8.70;99.90;;;;;;5078266;28;20081;-59
2024/02/20 03:28:48;;;;;;;7.88;3.50;;;8.70;99.90;;;;;;5078225;28;20031;-60
2024/02/20 03:31:14;;;;;;;8.40;3.70;;;8.70;99.90;;;;;;5081489;28;20489;-59
2024/02/20 03:33:39;;;;;;;7.15;4.18;;;8.70;99.90;;;;;;5081625;28;20093;-60
2024/02/20 03:36:06;;;;;;;8.40;3.65;;;8.70;99.90;;;;;;5083804;28;20248;-60
2024/02/20 03:38:31;;;;;;;6.88;3.47;;;8.70;99.90;;;;;;5081851;28;20050;-59
2024/02/20 03:40:57;;;;;;;5.88;3.13;;;8.70;99.90;;;;;;5081779;28;20043;-59
2024/02/20 03:43:22;;;;;;;12.70;4.18;;;8.70;99.90;;;;;;5081766;28;20477;-59
2024/02/20 03:45:48;;;;;;;6.40;3.95;;;8.70;99.90;;;;;;5082947;28;20520;-59
2024/02/20 03:48:13;;;;;;;6.18;4.35;;;8.60;99.90;;;;;;5079753;28;20032;-59
2024/02/20 03:50:39;;;;;;;6.35;3.92;;;8.50;99.90;;;;;;5081446;28;20119;-60
2024/02/20 03:53:05;;;;;;;8.85;3.80;;;8.40;99.90;;;;;;5081424;28;20063;-59
2024/02/20 03:55:31;;;;;;;7.63;3.58;;;8.40;99.90;;;;;;5081192;28;20036;-59
2024/02/20 03:57:57;;;;;;;7.00;4.00;;;8.40;99.90;;;;;;5081237;28;20031;-59
2024/02/20 04:00:26;;;;;;;10.30;4.43;;;8.40;99.90;;;;;;5083560;28;20398;-59
2024/02/20 04:02:54;;;;;;;4.90;3.20;;;8.50;99.90;;;;;;5074176;28;20032;-59
2024/02/20 04:05:20;;;;;;;7.97;4.03;;;8.50;99.90;;;;;;5079221;28;20480;-59
2024/02/20 04:07:46;;;;;;;6.18;3.70;;;8.50;99.90;;;;;;5081094;28;20119;-60
2024/02/20 04:10:13;;;;;;;8.82;3.95;;;8.50;99.90;;;;;;5079013;28;20066;-59
2024/02/20 04:12:40;;;;;;;7.72;3.78;;;8.50;99.90;;;;;;5081170;28;20545;-59
2024/02/20 04:15:07;;;;;;;5.32;3.60;;;8.50;99.90;;;;;;5081020;28;20035;-60
2024/02/20 04:17:33;;;;;;;4.97;3.05;;;8.50;99.90;;;;;;5081527;28;20036;-59
2024/02/20 04:20:06;;;;;;;5.72;3.22;;;8.50;99.90;;;;;;5076934;28;20028;-59
2024/02/20 04:22:31;;;;;;;8.68;4.07;;;8.50;99.90;;;;;;5081183;28;20437;-59
2024/02/20 04:25:00;;;;;;;6.85;3.50;;;8.50;99.90;;;;;;5082888;28;20085;-60
2024/02/20 04:27:27;;;;;;;7.70;4.80;;;8.60;99.90;;;;;;5082726;28;20024;-60
2024/02/20 04:29:53;;;;;;;5.50;3.42;;;8.60;99.90;;;;;;5082131;28;20477;-59
2024/02/20 04:32:19;;;;;;;5.80;3.65;;;8.50;99.90;;;;;;5080721;28;20028;-59
2024/02/20 04:34:44;;;;;;;7.00;3.25;;;8.50;99.90;;;;;;5079805;28;20032;-60
2024/02/20 04:37:10;;;;;;;6.55;3.13;;;8.50;99.90;;;;;;5077046;28;20039;-59
2024/02/20 04:39:35;;;;;;;5.85;2.95;;;8.50;99.90;;;;;;5080389;28;20338;-59
2024/02/20 04:42:01;;;;;;;5.30;2.72;;;8.50;99.90;;;;;;5080417;28;20024;-59
2024/02/20 04:44:28;;;;;;;5.03;3.08;;;8.40;99.90;;;;;;5080713;28;20104;-59
2024/02/20 04:46:53;;;;;;;7.18;2.30;;;8.40;99.90;;;;;;5080592;28;20035;-60
2024/02/20 04:49:19;;;;;;;3.83;2.53;;;8.40;99.90;;;;;;5080661;28;20397;-59
2024/02/20 04:51:44;;;;;;;5.18;2.00;;;8.40;99.90;;;;;;5080893;28;20119;-60
2024/02/20 04:54:10;;;;;;;4.93;2.53;;;8.40;99.90;;;;;;5080733;28;20047;-59
2024/02/20 04:56:35;;;;;;;4.47;2.67;;;8.40;99.90;;;;;;5082688;28;20058;-60
2024/02/20 04:59:01;;;;;;;6.43;2.60;;;8.40;99.90;;;;;;5080380;28;20035;-60
2024/02/20 05:01:26;;;;;;;4.55;2.05;;;8.40;99.90;;;;;;5080423;28;20087;-60
2024/02/20 05:03:52;;;;;;;4.60;2.00;;;8.40;99.90;;;;;;5074653;28;20032;-60
2024/02/20 05:06:17;;;;;;;9.35;2.88;;;8.30;99.90;;;;;;5080401;28;20553;-60
2024/02/20 05:08:43;;;;;;;6.20;2.60;;;8.30;99.90;;;;;;5081747;28;20028;-60
2024/02/20 05:11:09;;;;;;;4.65;1.98;;;8.30;99.90;;;;;;5078167;28;20401;-60
2024/02/20 05:13:34;;;;;;;3.13;2.00;;;8.30;99.90;;;;;;5072119;28;20070;-60
2024/02/20 05:16:03;;;;;;;3.97;2.10;;;8.30;99.90;;;;;;5076432;28;20016;-60
2024/02/20 05:18:28;;;;;;;3.85;2.00;;;8.30;99.90;;;;;;5077624;28;20039;-60
2024/02/20 05:20:54;;;;;;;6.20;2.65;;;8.30;99.90;;;;;;5075870;28;20024;-60
2024/02/20 05:23:20;;;;;;;5.57;2.00;;;8.30;99.90;;;;;;5075851;28;20021;-61
2024/02/20 05:25:46;;;;;;;3.40;2.28;;;8.30;99.90;;;;;;5078846;28;20137;-60
2024/02/20 05:28:13;;;;;;;2.78;2.00;;;8.30;99.90;;;;;;5082188;28;20371;-60
2024/02/20 05:30:38;;;;;;;5.22;1.90;;;8.30;99.90;;;;;;5080024;28;20335;-60
2024/02/20 05:33:04;;;;;;;2.47;1.88;;;8.30;99.90;;;;;;5071702;28;20130;-60
2024/02/20 05:35:30;;;;;;;3.25;1.95;;;8.30;99.90;;;;;;5075989;28;20040;-60
2024/02/20 05:37:57;;;;;;;3.33;1.80;;;8.30;99.90;;;;;;5079929;28;20103;-60
2024/02/20 05:40:22;;;;;;;2.60;1.60;;;8.30;99.90;;;;;;5077501;28;20066;-60
2024/02/20 05:42:48;;;;;;;3.70;1.45;;;8.30;99.90;;;;;;5080688;28;20079;-59
2024/02/20 05:45:14;;;;;;;4.18;1.70;;;8.30;99.90;;;;;;5081543;28;20036;-60
2024/02/20 05:47:41;;;;;;;1.63;1.20;;;8.30;99.90;;;;;;5079956;28;20034;-60
2024/02/20 05:50:06;;;;;;;2.40;1.30;;;8.20;99.90;;;;;;5079645;28;20024;-60
2024/02/20 05:52:32;;;;;;;3.03;1.60;;;8.20;99.90;;;;;;5077039;28;20680;-60
2024/02/20 05:54:58;;;;;;;2.78;1.20;;;8.10;99.90;;;;;;5079469;28;20028;-60
2024/02/20 05:57:23;;;;;;;1.73;1.10;;;8.10;99.90;;;;;;5079428;28;20082;-60
2024/02/20 05:59:49;;;;;;;1.75;0.88;;;8.00;99.90;;;;;;5081256;28;20073;-60
2024/02/20 06:02:14;;;;;;;2.55;1.70;;;8.00;99.90;;;;;;5076026;28;20074;-59
2024/02/20 06:04:40;;;;;;;3.38;1.10;;;8.00;99.90;;;;;;5078562;28;20490;-59
2024/02/20 06:07:05;;;;;;;4.10;1.23;;;7.90;99.90;;;;;;5078613;28;20110;-60
2024/02/20 06:09:31;;;;;;;2.95;1.20;;;7.90;99.90;;;;;;5078458;28;20501;-59
2024/02/20 06:11:56;;;;;;;1.77;1.20;;;7.90;99.90;;;;;;5081241;28;20442;-59
2024/02/20 06:14:22;;;;;;;1.73;1.00;;;7.90;99.90;;;;;;5079547;28;20036;-59
2024/02/20 06:16:47;;;;;;;3.53;1.23;;;7.80;99.90;;;;;;5074766;28;20553;-59
2024/02/20 06:19:13;;;;;;;0.98;0.85;;;7.80;99.90;;;;;;5077821;28;20038;-59
2024/02/20 06:21:40;;;;;;;1.20;0.90;;;7.90;99.90;;;;;;5074623;28;20032;-60
2024/02/20 06:24:05;;;;;;;1.67;1.30;;;7.80;99.90;;;;;;5079067;28;20445;-60
2024/02/20 06:26:34;;;;;;;1.58;1.10;;;7.90;99.90;;;;;;5080838;28;20131;-60
2024/02/20 06:28:59;;;;;;;2.85;1.30;;;7.90;99.90;;;;;;5076548;28;20390;-59
2024/02/20 06:31:25;;;;;;;4.80;1.23;;;7.80;99.90;;;;;;5072169;28;20455;-60
2024/02/20 06:33:51;;;;;;;3.70;1.52;;;7.80;99.90;;;;;;5076969;28;20028;-59
2024/02/20 06:36:16;;;;;;;1.40;1.10;;;7.90;99.90;;;;;;5078659;28;20236;-59
2024/02/20 06:38:42;;;;;;;2.83;1.38;;;7.80;99.90;;;;;;5073907;28;20047;-59
2024/02/20 06:41:07;;;;;;;3.17;1.10;;;7.80;99.90;;;;;;5080694;28;20024;-60
2024/02/20 06:43:36;;;;;;;1.00;0.90;;;7.80;99.90;;;;;;5078649;28;20028;-60
2024/02/20 06:46:02;;;;;;;2.08;0.93;;;7.80;99.90;;;;;;5078375;28;20031;-60
2024/02/20 06:48:27;;;;;;;2.08;1.48;;;7.80;99.90;;;;;;5077510;28;20024;-60
2024/02/20 06:50:53;;;;;;;2.55;1.00;;;7.90;99.90;;;;;;5078431;28;20071;-60
2024/02/20 06:53:18;;;;;;;2.17;1.00;;;7.80;99.90;;;;;;5077726;28;20034;-60
2024/02/20 06:55:43;;;;;;;2.45;1.08;;;7.90;99.90;;;;;;5078613;28;20045;-60
2024/02/20 06:58:09;;;;;;;6.03;1.30;;;7.80;99.90;;;;;;5075800;28;20016;-60
2024/02/20 07:00:37;;;;;;;2.13;1.10;;;7.80;99.90;;;;;;5080470;28;20028;-60
2024/02/20 07:03:06;;;;;;;1.48;1.00;;;7.80;99.90;;;;;;5067183;28;20370;-60
2024/02/20 07:05:32;;;;;;;3.00;1.17;;;7.80;99.90;;;;;;5076024;28;20028;-60
2024/02/20 07:07:58;;;;;;;3.00;0.93;;;7.80;99.90;;;;;;5073192;28;20535;-60
2024/02/20 07:10:23;;;;;;;1.92;0.73;;;7.90;99.90;;;;;;5077630;28;20398;-61
2024/02/20 07:12:49;;;;;;;1.17;0.80;;;8.00;99.90;;;;;;5078440;28;20036;-62
2024/02/20 07:15:14;;;;;;;1.20;1.10;;;8.00;99.90;;;;;;5077864;28;20444;-64
2024/02/20 07:17:40;;;;;;;3.30;0.80;;;8.00;99.90;;;;;;5077828;28;20031;-65
2024/02/20 07:20:06;;;;;;;1.55;1.00;;;8.10;99.90;;;;;;5082016;28;20030;-63
2024/02/20 07:22:32;;;;;;;1.00;0.80;;;8.10;99.90;;;;;;5082154;28;20032;-65
2024/02/20 07:24:59;;;;;;;1.95;1.10;;;8.20;99.90;;;;;;5081467;28;20023;-65
2024/02/20 07:27:25;;;;;;;1.60;0.90;;;8.20;99.90;;;;;;5081968;28;20125;-65
2024/02/20 07:29:50;;;;;;;4.18;1.10;;;8.30;99.90;;;;;;5082019;28;20112;-62
2024/02/20 07:32:16;;;;;;;3.28;1.02;;;8.20;99.90;;;;;;5083644;28;20107;-64
2024/02/20 07:34:44;;;;;;;1.30;1.00;;;8.20;99.90;;;;;;5081975;28;20282;-65
2024/02/20 07:37:10;;;;;;;2.10;1.23;;;8.30;99.90;;;;;;5081693;28;20035;-64
2024/02/20 07:39:36;;;;;;;1.20;0.70;;;8.30;99.90;;;;;;5081656;28;20055;-64
2024/02/20 07:42:02;;;;;;;2.25;1.10;;;8.30;99.90;;;;;;5080841;28;20028;-64
2024/02/20 07:44:27;;;;;;;1.00;0.85;;;8.30;99.90;;;;;;5078221;28;20027;-65
2024/02/20 07:46:53;;;;;;;1.27;0.82;;;8.30;99.90;;;;;;5077653;28;20021;-63
2024/02/20 07:49:19;;;;;;;4.13;0.70;;;8.30;99.90;;;;;;5077056;28;20032;-64
2024/02/20 07:51:44;;;;;;;1.75;0.93;;;8.40;99.90;;;;;;5075640;28;20020;-64
2024/02/20 07:54:10;;;;;;;1.13;0.93;;;8.40;99.90;;;;;;5074259;28;20569;-64
2024/02/20 07:56:35;;;;;;;1.55;0.90;;;8.30;99.90;;;;;;5076358;28;20028;-64
2024/02/20 07:59:01;;;;;;;1.67;1.08;;;8.40;99.90;;;;;;5079123;28;20028;-64
2024/02/20 08:01:26;;;;;;;1.00;0.73;;;8.40;99.90;;;;;;5081088;28;20450;-64
2024/02/20 08:03:53;;;;;;;2.38;1.02;;;8.40;99.90;;;;;;5077343;28;20028;-63
2024/02/20 08:06:22;;;;;;;2.53;1.08;;;8.40;99.90;;;;;;5083052;28;20069;-64
2024/02/20 08:08:49;;;;;;;1.38;1.20;;;8.50;99.90;;;;;;5077443;28;20383;-64
2024/02/20 08:11:15;;;;;;;1.73;1.13;;;8.40;99.90;;;;;;5081619;28;20524;-64
2024/02/20 08:13:47;;;;;;;2.80;1.38;;;8.50;99.90;;;;;;5079263;28;20065;-64
2024/02/20 08:16:13;;;;;;;3.08;1.27;;;8.60;99.90;;;;;;5079020;28;20111;-63
2024/02/20 08:18:40;;;;;;;2.88;1.50;;;8.70;99.90;;;;;;5080935;28;20043;-63
2024/02/20 08:21:06;;;;;;;2.70;1.17;;;8.80;99.90;;;;;;5080970;28;20049;-64
2024/02/20 08:23:31;;;;;;;2.13;1.20;;;8.90;99.90;;;;;;5080722;28;20111;-64
2024/02/20 08:25:57;;;;;;;1.95;1.15;;;9.00;99.90;;;;;;5082916;28;20123;-64
2024/02/20 08:28:23;;;;;;;1.90;1.35;;;9.20;99.90;;;;;;5080631;28;20035;-64
2024/02/20 08:30:49;;;;;;;1.75;1.13;;;9.30;99.90;;;;;;5080917;28;20101;-64
2024/02/20 08:33:14;;;;;;;1.50;0.90;;;9.40;99.90;;;;;;5080465;28;20024;-65
2024/02/20 08:35:43;;;;;;;2.10;1.20;;;9.60;99.90;;;;;;5080605;28;20040;-64
2024/02/20 08:38:08;;;;;;;2.05;1.08;;;9.80;99.90;;;;;;5080656;28;20020;-64
2024/02/20 08:40:34;;;;;;;4.63;1.35;;;10.20;99.90;;;;;;5080491;28;20380;-66
2024/02/20 08:42:59;;;;;;;1.30;1.20;;;10.20;99.90;;;;;;5082635;28;20020;-65
2024/02/20 08:45:25;;;;;;;1.30;1.10;;;10.30;99.90;;;;;;5080396;28;20587;-65
2024/02/20 08:47:51;;;;;;;2.30;0.80;;;10.30;99.90;;;;;;5080608;28;20031;-64
2024/02/20 08:50:17;;;;;;;3.40;0.98;;;10.50;99.90;;;;;;5080253;28;20013;-65
2024/02/20 08:52:43;;;;;;;2.70;0.80;;;10.80;99.90;;;;;;5080557;28;20532;-63
2024/02/20 08:55:09;;;;;;;1.33;0.85;;;11.10;99.90;;;;;;5079976;28;20050;-64
2024/02/20 08:57:34;;;;;;;1.00;0.90;;;11.10;99.90;;;;;;5079004;28;20497;-65
2024/02/20 08:59:59;;;;;;;3.60;1.63;;;10.90;99.90;;;;;;5080555;28;20125;-64
2024/02/20 09:02:25;;;;;;;1.15;0.90;;;10.80;99.90;;;;;;5077644;28;20035;-65
2024/02/20 09:04:51;;;;;;;1.25;0.80;;;10.80;99.90;;;;;;5080309;28;20032;-64
2024/02/20 09:07:17;;;;;;;2.25;1.10;;;10.90;99.90;;;;;;5076585;28;20078;-65
2024/02/20 09:09:42;;;;;;;2.38;0.90;;;10.90;99.90;;;;;;5081942;28;20074;-64
2024/02/20 09:12:08;;;;;;;2.00;0.80;;;11.10;99.90;;;;;;5080186;28;20398;-65
2024/02/20 09:14:34;;;;;;;3.60;0.70;;;11.20;99.90;;;;;;5080099;28;20405;-63
2024/02/20 09:17:00;;;;;;;2.25;0.80;;;11.20;99.90;;;;;;5080216;28;20106;-64
2024/02/20 09:19:25;;;;;;;2.20;1.00;;;11.20;99.90;;;;;;5079996;28;20028;-64
2024/02/20 09:21:51;;;;;;;0.63;0.63;;;11.00;99.90;;;;;;5078544;28;20039;-58
2024/02/20 09:24:16;;;;;;;0.70;0.60;;;10.90;99.90;;;;;;5080029;28;20095;-62
2024/02/20 09:26:43;;;;;;;1.83;0.68;;;10.60;99.90;;;;;;5081119;28;20082;-63
2024/02/20 09:29:08;;;;;;;3.53;0.90;;;10.50;99.90;;;;;;5077697;28;20107;-63
2024/02/20 09:31:34;;;;;;;1.67;0.70;;;10.30;99.90;;;;;;5079788;28;20508;-63
2024/02/20 09:33:59;;;;;;;2.22;0.70;;;10.20;99.90;;;;;;5079515;28;20027;-63
2024/02/20 09:36:25;;;;;;;0.70;0.70;;;10.00;99.90;;;;;;5077663;28;20394;-62
2024/02/20 09:38:50;;;;;;;0.90;0.40;;;9.90;99.90;;;;;;5079274;28;20064;-62
2024/02/20 09:41:23;;;;;;;4.00;0.80;;;9.80;99.90;;;;;;5077414;28;20043;-61
2024/02/20 09:43:49;;;;;;;1.98;0.85;;;10.10;99.90;;;;;;5079777;28;20024;-56
2024/02/20 09:46:19;;;;;;;2.38;0.73;;;10.30;99.90;;;;;;5078543;28;20110;-62
2024/02/20 09:48:46;;;;;;;3.63;1.10;;;10.50;99.90;;;;;;5075695;28;20024;-61
2024/02/20 09:51:14;;;;;;;1.92;0.60;;;10.40;99.90;;;;;;5079324;28;20028;-62
2024/02/20 09:53:41;;;;;;;1.48;0.98;;;10.20;99.90;;;;;;5079488;28;20035;-62
2024/02/20 09:56:07;;;;;;;0.63;0.60;;;10.00;99.90;;;;;;5075529;28;20024;-61
2024/02/20 09:58:33;;;;;;;3.88;1.08;;;9.90;99.90;;;;;;5079360;28;20038;-62
2024/02/20 10:01:03;;;;;;;2.53;0.88;;;9.90;99.90;;;;;;5079189;28;20103;-61
2024/02/20 10:03:31;;;;;;;3.47;0.95;;;9.70;99.90;;;;;;5073176;28;20031;-62
2024/02/20 10:05:58;;;;;;;5.20;0.90;;;9.60;99.90;;;;;;5080901;28;20534;-63
2024/02/20 10:08:26;;;;;;;4.13;0.90;;;9.50;99.90;;;;;;5078472;28;20528;-62
2024/02/20 10:10:52;;;;;;;3.45;1.25;;;9.40;99.90;;;;;;5078966;28;20016;-61
2024/02/20 10:13:19;;;;;;;4.25;1.25;;;9.20;99.90;;;;;;5079108;28;20571;-62
2024/02/20 10:15:45;;;;;;;8.32;1.52;;;9.20;99.90;;;;;;5079057;28;20024;-62
2024/02/20 10:18:11;;;;;;;5.97;1.23;;;9.20;99.90;;;;;;5078897;28;20124;-62
2024/02/20 10:20:37;;;;;;;6.40;1.80;;;9.20;99.90;;;;;;5078822;28;20036;-62
2024/02/20 10:23:07;;;;;;;10.50;1.50;;;9.20;99.90;;;;;;5078539;28;20433;-61
2024/02/20 10:25:32;;;;;;;7.80;1.13;;;9.20;99.90;;;;;;5070231;28;20430;-61
2024/02/20 10:27:58;;;;;;;4.80;1.23;;;9.20;99.90;;;;;;5067968;28;20032;-61
2024/02/20 10:30:24;;;;;;;7.72;1.73;;;9.10;99.90;;;;;;5074565;28;20082;-61
2024/02/20 10:32:50;;;;;;;5.05;1.42;;;9.10;99.90;;;;;;5074940;28;20027;-61
2024/02/20 10:35:15;;;;;;;9.35;2.30;;;9.10;99.90;;;;;;5077159;28;20039;-62
2024/02/20 10:37:41;;;;;;;11.20;1.70;;;9.20;99.90;;;;;;5078683;28;20500;-61
2024/02/20 10:40:08;;;;;;;10.73;2.63;;;9.20;99.90;;;;;;5082139;28;20477;-60
2024/02/20 10:42:35;;;;;;;12.75;1.65;;;9.30;99.90;;;;;;5084563;28;20031;-61
2024/02/20 10:45:08;;;;;;;10.48;1.92;;;9.30;99.90;;;;;;5083432;28;20086;-62
2024/02/20 10:47:42;;;;;;;8.38;2.95;;;9.30;99.90;;;;;;5084849;28;20026;-61
2024/02/20 10:50:08;;;;;;;11.38;2.47;;;9.30;99.90;;;;;;5081304;28;20113;-61
2024/02/20 10:52:36;;;;;;;13.15;2.75;;;9.30;99.90;;;;;;5080242;28;20032;-61
2024/02/20 10:55:07;;;;;;;7.47;1.90;;;9.20;99.90;;;;;;5082930;28;20385;-61
2024/02/20 10:57:37;;;;;;;7.28;1.92;;;9.20;99.90;;;;;;5082624;28;20101;-60
2024/02/20 11:00:09;;;;;;;10.38;2.08;;;9.30;99.90;;;;;;5083483;28;20497;-61
2024/02/20 11:02:38;;;;;;;11.68;2.42;;;9.40;99.90;;;;;;5078168;28;20051;-61
2024/02/20 11:05:12;;;;;;;11.77;1.80;;;9.60;99.90;;;;;;5082331;28;20032;-62
2024/02/20 11:07:37;;;;;;;9.50;1.95;;;9.70;99.90;;;;;;5082131;28;20059;-60
2024/02/20 11:10:08;;;;;;;7.40;1.85;;;9.80;99.90;;;;;;5082601;28;20122;-61
2024/02/20 11:12:33;;;;;;;8.27;1.80;;;9.90;99.90;;;;;;5082679;28;22639;-61
2024/02/20 11:15:11;;;;;;;10.82;1.92;;;9.90;99.90;;;;;;5082469;28;20039;-61
2024/02/20 11:17:38;;;;;;;22.33;2.47;;;10.00;99.90;;;;;;5082361;28;20074;-62
2024/02/20 11:20:08;;;;;;;13.23;2.70;;;10.00;99.90;;;;;;5077896;28;20525;-61
2024/02/20 11:22:34;;;;;;;9.45;3.65;;;10.00;98.30;;;;;;5081934;28;20051;-61
2024/02/20 11:25:08;;;;;;;12.82;2.75;;;10.00;96.40;;;;;;5082230;28;20177;-61
2024/02/20 11:27:46;;;;;;;15.77;2.53;;;10.00;96.50;;;;;;5082235;28;20028;-61
2024/02/20 11:30:21;;;;;;;10.38;2.03;;;10.20;96.30;;;;;;5078227;28;20016;-61
2024/02/20 11:32:49;;;;;;;17.38;3.13;;;10.30;96.00;;;;;;5078051;28;20028;-61
2024/02/20 11:35:27;;;;;;;13.63;2.53;;;10.30;94.80;;;;;;5081938;28;20546;-62
2024/02/20 11:37:54;;;;;;;5.45;1.83;;;10.30;93.50;;;;;;5083588;28;20034;-60
2024/02/20 11:40:33;;;;;;;9.10;2.05;;;10.40;93.40;;;;;;5083854;28;20077;-62
2024/02/20 11:43:04;;;;;;;6.90;1.95;;;10.50;93.40;;;;;;5079055;28;20351;-61
2024/02/20 11:45:31;;;;;;;7.68;2.55;;;10.60;93.50;;;;;;5081761;28;20400;-61
2024/02/20 11:48:10;;;;;;;6.70;1.83;;;10.60;92.20;;;;;;5081896;28;20020;-61
2024/02/20 11:50:40;;;;;;;12.77;2.20;;;10.60;92.60;;;;;;5080678;28;20512;-61
2024/02/20 11:53:16;;;;;;;13.18;2.63;;;10.60;93.30;;;;;;5077395;28;20500;-61
2024/02/20 11:55:43;;;;;;;12.23;2.75;;;10.60;92.90;;;;;;5081634;28;20427;-62
2024/02/20 11:58:14;;;;;;;9.27;2.85;;;10.50;92.60;;;;;;5079918;28;20028;-63
2024/02/20 12:00:40;;;;;;;11.35;2.72;;;10.50;92.80;;;;;;5074014;28;20437;-61
2024/02/20 12:03:07;;;;;;;9.05;2.17;;;10.50;93.10;;;;;;5072151;28;20048;-61
2024/02/20 12:05:37;;;;;;;14.25;2.17;;;10.50;93.00;;;;;;5075797;28;20428;-61
2024/02/20 12:08:18;;;;;;;11.50;2.58;;;10.30;92.10;;;;;;5075938;28;20036;-61
2024/02/20 12:10:45;;;;;;;7.53;2.58;;;10.30;93.40;;;;;;5076088;28;20047;-61
2024/02/20 12:13:18;;;;;;;9.40;2.28;;;10.30;92.90;;;;;;5081071;28;20027;-60
2024/02/20 12:15:48;;;;;;;16.08;3.08;;;10.20;93.00;;;;;;5081019;28;20028;-61
2024/02/20 12:18:28;;;;;;;13.35;2.15;;;10.10;92.20;;;;;;5081045;28;20027;-61
2024/02/20 12:21:08;;;;;;;9.80;2.58;;;10.20;90.50;;;;;;5081029;28;20463;-61
2024/02/20 12:23:36;;;;;;;14.40;2.30;;;10.30;92.10;;;;;;5077503;28;20191;-60
2024/02/20 12:26:10;;;;;;;9.23;1.98;;;10.40;92.80;;;;;;5079377;28;20034;-61
2024/02/20 12:28:36;;;;;;;15.82;2.40;;;10.50;92.90;;;;;;5077953;28;20024;-61
2024/02/20 12:31:04;;;;;;;11.93;2.40;;;10.60;92.80;;;;;;5082807;28;20052;-61
2024/02/20 12:33:32;;;;;;;13.18;3.13;;;10.40;92.20;;;;;;5078643;28;20043;-61
2024/02/20 12:35:58;;;;;;;7.70;1.92;;;10.30;92.30;;;;;;5072001;28;20036;-61
2024/02/20 12:38:24;;;;;;;12.18;2.30;;;10.20;91.90;;;;;;5080333;28;20586;-61
2024/02/20 12:40:50;;;;;;;8.30;2.15;;;10.20;92.80;;;;;;5080705;28;20281;-59
2024/02/20 12:43:15;;;;;;;10.02;1.92;;;10.20;92.40;;;;;;5078411;28;20493;-61
2024/02/20 12:45:41;;;;;;;10.23;2.25;;;10.30;92.00;;;;;;5079515;28;20032;-61
2024/02/20 12:48:07;;;;;;;10.00;2.10;;;10.30;91.90;;;;;;5079296;28;20614;-61
2024/02/20 12:50:34;;;;;;;11.20;2.33;;;10.40;92.30;;;;;;5075057;28;20024;-61